SBI5028 USCC-UNNT
Flight info
| Callsign | SBI5028 |
|---|---|
| Flight time | N/A |
| Altitude | 37000 |
| Route | NOMGU2F NOMGU L749 LUKAS M864 GISMA B926 SZ W1 GOLIM GOLIM1N |
| Aircraft | A319/M-SDE3FGHIRWY/LB1 |
Departure
| Time | 2026-05-01 14:17 |
|---|---|
| Airport | Kurchatov Chelyabinsk International Airport (USCC) |
Arrival
| Time | N/A |
|---|---|
| Airport | Novosibirsk Tolmachevo Airport (UNNT) |
| Time | Latitude | Longitude | Altitude | Speed | Heading |
|---|---|---|---|---|---|
| 2026-05-01 13:21 | 55.29905 | 61.50830 | 766 ft | 0 kts | 194° |
| 2026-05-01 13:23 | 55.29883 | 61.51050 | 765 ft | 0 kts | 246° |
| 2026-05-01 14:06 | 55.29886 | 61.51065 | 765 ft | 4 kts | 242° |
| 2026-05-01 14:07 | 55.29899 | 61.51107 | 765 ft | 4 kts | 238° |
| 2026-05-01 14:07 | 55.29913 | 61.51143 | 765 ft | 2 kts | 236° |
| 2026-05-01 14:07 | 55.29916 | 61.51150 | 765 ft | 0 kts | 236° |
| 2026-05-01 14:11 | 55.29914 | 61.51147 | 765 ft | 0 kts | 236° |
| 2026-05-01 14:11 | 55.29914 | 61.51146 | 765 ft | 0 kts | 239° |
| 2026-05-01 14:11 | 55.29918 | 61.51116 | 765 ft | 5 kts | 310° |
| 2026-05-01 14:12 | 55.29949 | 61.51063 | 765 ft | 5 kts | 297° |
| 2026-05-01 14:12 | 55.29958 | 61.50996 | 765 ft | 7 kts | 282° |
| 2026-05-01 14:12 | 55.29971 | 61.50896 | 766 ft | 10 kts | 283° |
| 2026-05-01 14:12 | 55.30020 | 61.50850 | 766 ft | 9 kts | 10° |
| 2026-05-01 14:13 | 55.30082 | 61.50890 | 766 ft | 10 kts | 44° |
| 2026-05-01 14:13 | 55.30088 | 61.50967 | 766 ft | 10 kts | 102° |
| 2026-05-01 14:13 | 55.30079 | 61.51138 | 765 ft | 11 kts | 62° |
| 2026-05-01 14:13 | 55.30137 | 61.51228 | 765 ft | 11 kts | 39° |
| 2026-05-01 14:14 | 55.30189 | 61.51305 | 765 ft | 9 kts | 40° |
| 2026-05-01 14:14 | 55.30228 | 61.51370 | 764 ft | 7 kts | 51° |
| 2026-05-01 14:14 | 55.30230 | 61.51467 | 764 ft | 10 kts | 101° |
| 2026-05-01 14:14 | 55.30210 | 61.51617 | 764 ft | 15 kts | 104° |
| 2026-05-01 14:15 | 55.30182 | 61.51825 | 763 ft | 20 kts | 103° |
| 2026-05-01 14:15 | 55.30146 | 61.52086 | 762 ft | 23 kts | 103° |
| 2026-05-01 14:15 | 55.30108 | 61.52360 | 761 ft | 23 kts | 103° |
| 2026-05-01 14:15 | 55.30075 | 61.52605 | 758 ft | 18 kts | 103° |
| 2026-05-01 14:16 | 55.30111 | 61.52725 | 756 ft | 11 kts | 15° |
| 2026-05-01 14:16 | 55.30176 | 61.52752 | 758 ft | 9 kts | 13° |
| 2026-05-01 14:16 | 55.30233 | 61.52772 | 757 ft | 8 kts | 358° |
| 2026-05-01 14:16 | 55.30258 | 61.52676 | 757 ft | 19 kts | 284° |
| 2026-05-01 14:17 | 55.30362 | 61.51950 | 764 ft | 101 kts | 283° |
| 2026-05-01 14:17 | 55.30587 | 61.50347 | 804 ft | 161 kts | 288° |
| 2026-05-01 14:17 | 55.30858 | 61.48487 | 1575 ft | 155 kts | 288° |
| 2026-05-01 14:17 | 55.31345 | 61.46801 | 2156 ft | 164 kts | 322° |
| 2026-05-01 14:18 | 55.32479 | 61.46347 | 2608 ft | 185 kts | 8° |
| 2026-05-01 14:18 | 55.33625 | 61.47713 | 2929 ft | 226 kts | 50° |
| 2026-05-01 14:18 | 55.34482 | 61.50172 | 3531 ft | 238 kts | 55° |
| 2026-05-01 14:18 | 55.35031 | 61.51868 | 3915 ft | 247 kts | 56° |
| 2026-05-01 14:19 | 55.35330 | 61.52768 | 4229 ft | 249 kts | 55° |
| 2026-05-01 14:19 | 55.35800 | 61.54184 | 4739 ft | 253 kts | 56° |
| 2026-05-01 14:19 | 55.36692 | 61.56864 | 5761 ft | 258 kts | 56° |
| 2026-05-01 14:19 | 55.37643 | 61.59578 | 6708 ft | 262 kts | 56° |
| 2026-05-01 14:20 | 55.38290 | 61.61388 | 7272 ft | 267 kts | 55° |
| 2026-05-01 14:20 | 55.40696 | 61.67940 | 9213 ft | 281 kts | 53° |
| 2026-05-01 14:20 | 55.41411 | 61.69857 | 9792 ft | 283 kts | 54° |
| 2026-05-01 14:21 | 55.42508 | 61.72816 | 10537 ft | 293 kts | 54° |
| 2026-05-01 14:21 | 55.43623 | 61.75875 | 11343 ft | 300 kts | 55° |
| 2026-05-01 14:21 | 55.44740 | 61.79012 | 12181 ft | 305 kts | 56° |
| 2026-05-01 14:22 | 55.46641 | 61.85812 | 13853 ft | 316 kts | 69° |
| 2026-05-01 14:22 | 55.47397 | 61.89487 | 14582 ft | 321 kts | 69° |
| 2026-05-01 14:22 | 55.48170 | 61.93217 | 15304 ft | 325 kts | 69° |
| 2026-05-01 14:22 | 55.48949 | 61.96974 | 16025 ft | 328 kts | 69° |
| 2026-05-01 14:23 | 55.49738 | 62.00783 | 16714 ft | 333 kts | 69° |
| 2026-05-01 14:23 | 55.50535 | 62.04644 | 17401 ft | 337 kts | 69° |
| 2026-05-01 14:23 | 55.51338 | 62.08549 | 18086 ft | 341 kts | 69° |
| 2026-05-01 14:23 | 55.52150 | 62.12501 | 18692 ft | 344 kts | 69° |
| 2026-05-01 14:24 | 55.52970 | 62.16493 | 19309 ft | 347 kts | 69° |
| 2026-05-01 14:24 | 55.53794 | 62.20515 | 19950 ft | 349 kts | 70° |
| 2026-05-01 14:24 | 55.54620 | 62.24561 | 20559 ft | 351 kts | 70° |
| 2026-05-01 14:24 | 55.55456 | 62.28647 | 21135 ft | 356 kts | 70° |
| 2026-05-01 14:25 | 55.56294 | 62.32756 | 21800 ft | 356 kts | 71° |
| 2026-05-01 14:25 | 55.57130 | 62.36878 | 22476 ft | 358 kts | 71° |
| 2026-05-01 14:25 | 55.57962 | 62.40987 | 22993 ft | 364 kts | 71° |
| 2026-05-01 14:25 | 55.58845 | 62.45364 | 23122 ft | 381 kts | 71° |
| 2026-05-01 14:26 | 55.59738 | 62.49807 | 23256 ft | 396 kts | 71° |
| 2026-05-01 14:26 | 55.61644 | 62.59314 | 23573 ft | 422 kts | 72° |
| 2026-05-01 14:26 | 55.62628 | 62.64242 | 23880 ft | 427 kts | 72° |
| 2026-05-01 14:27 | 55.63623 | 62.69224 | 24229 ft | 431 kts | 72° |
| 2026-05-01 14:27 | 55.64625 | 62.74247 | 24625 ft | 434 kts | 72° |
| 2026-05-01 14:27 | 55.65629 | 62.79305 | 24983 ft | 437 kts | 73° |
| 2026-05-01 14:28 | 55.67166 | 62.89737 | 25747 ft | 440 kts | 83° |
| 2026-05-01 14:28 | 55.67682 | 62.95086 | 26142 ft | 442 kts | 83° |
| 2026-05-01 14:28 | 55.68201 | 63.00467 | 26526 ft | 445 kts | 83° |
| 2026-05-01 14:28 | 55.68721 | 63.05889 | 26895 ft | 447 kts | 83° |
| 2026-05-01 14:29 | 55.69240 | 63.11336 | 27256 ft | 450 kts | 84° |
| 2026-05-01 14:29 | 55.69761 | 63.16818 | 27623 ft | 452 kts | 84° |
| 2026-05-01 14:30 | 55.71324 | 63.33448 | 28592 ft | 459 kts | 85° |
| 2026-05-01 14:30 | 55.71847 | 63.39050 | 28925 ft | 461 kts | 85° |
| 2026-05-01 14:30 | 55.72368 | 63.44670 | 29246 ft | 463 kts | 85° |
| 2026-05-01 14:31 | 55.73407 | 63.56011 | 29903 ft | 466 kts | 85° |
| 2026-05-01 14:31 | 55.73924 | 63.61682 | 30260 ft | 465 kts | 85° |
| 2026-05-01 14:31 | 55.74439 | 63.67352 | 30578 ft | 466 kts | 86° |
| 2026-05-01 14:31 | 55.74949 | 63.73027 | 30894 ft | 467 kts | 86° |
| 2026-05-01 14:32 | 55.75462 | 63.78729 | 31185 ft | 468 kts | 85° |
| 2026-05-01 14:32 | 55.75974 | 63.84441 | 31493 ft | 468 kts | 85° |
| 2026-05-01 14:32 | 55.76483 | 63.90151 | 31804 ft | 468 kts | 86° |
| 2026-05-01 14:32 | 55.76990 | 63.95860 | 32140 ft | 468 kts | 86° |
| 2026-05-01 14:33 | 55.77493 | 64.01573 | 32445 ft | 469 kts | 86° |
| 2026-05-01 14:33 | 55.77993 | 64.07301 | 32742 ft | 470 kts | 86° |
| 2026-05-01 14:33 | 55.78489 | 64.13039 | 33041 ft | 470 kts | 86° |
| 2026-05-01 14:33 | 55.78981 | 64.18798 | 33346 ft | 471 kts | 86° |
| 2026-05-01 14:34 | 55.79472 | 64.24554 | 33641 ft | 472 kts | 86° |
| 2026-05-01 14:34 | 55.79964 | 64.30331 | 33905 ft | 473 kts | 86° |
| 2026-05-01 14:34 | 55.80455 | 64.36111 | 34161 ft | 473 kts | 86° |
| 2026-05-01 14:34 | 55.80946 | 64.41901 | 34409 ft | 474 kts | 86° |
| 2026-05-01 14:35 | 55.81431 | 64.47703 | 34659 ft | 474 kts | 87° |
| 2026-05-01 14:35 | 55.81910 | 64.53502 | 34918 ft | 474 kts | 87° |
| 2026-05-01 14:35 | 55.82386 | 64.59296 | 35154 ft | 474 kts | 86° |
| 2026-05-01 14:35 | 55.82858 | 64.65037 | 35303 ft | 476 kts | 86° |
| 2026-05-01 14:36 | 55.83335 | 64.70872 | 35490 ft | 477 kts | 86° |
| 2026-05-01 14:36 | 55.83813 | 64.76733 | 35699 ft | 478 kts | 86° |
| 2026-05-01 14:36 | 55.84286 | 64.82588 | 35899 ft | 479 kts | 86° |
| 2026-05-01 14:36 | 55.84759 | 64.88464 | 36092 ft | 480 kts | 86° |
| 2026-05-01 14:37 | 55.85234 | 64.94352 | 36294 ft | 480 kts | 86° |
| 2026-05-01 14:37 | 55.85706 | 65.00240 | 36458 ft | 481 kts | 87° |
| 2026-05-01 14:37 | 55.86177 | 65.06146 | 36641 ft | 482 kts | 87° |
| 2026-05-01 14:38 | 55.87106 | 65.17975 | 36691 ft | 482 kts | 87° |
| 2026-05-01 14:38 | 55.88019 | 65.29805 | 36689 ft | 482 kts | 87° |
| 2026-05-01 14:39 | 55.88917 | 65.41640 | 36676 ft | 482 kts | 87° |
| 2026-05-01 14:39 | 55.89802 | 65.53487 | 36683 ft | 482 kts | 87° |
| 2026-05-01 14:40 | 55.90684 | 65.65336 | 36653 ft | 482 kts | 87° |
| 2026-05-01 14:40 | 55.91557 | 65.77180 | 36672 ft | 482 kts | 88° |
| 2026-05-01 14:41 | 55.92410 | 65.89029 | 36667 ft | 482 kts | 88° |
| 2026-05-01 14:41 | 55.93245 | 66.00805 | 36673 ft | 482 kts | 88° |
| 2026-05-01 14:42 | 55.94078 | 66.12681 | 36666 ft | 482 kts | 88° |
| 2026-05-01 14:42 | 55.94899 | 66.24559 | 36668 ft | 482 kts | 88° |
| 2026-05-01 14:43 | 55.95712 | 66.36424 | 36668 ft | 482 kts | 88° |
| 2026-05-01 14:43 | 55.96510 | 66.48302 | 36668 ft | 482 kts | 88° |
| 2026-05-01 14:44 | 55.97290 | 66.60098 | 36668 ft | 481 kts | 88° |
| 2026-05-01 14:44 | 55.98443 | 66.77913 | 36635 ft | 482 kts | 89° |
| 2026-05-01 14:45 | 55.99586 | 66.95814 | 36657 ft | 483 kts | 89° |
| 2026-05-01 14:46 | 56.00328 | 67.07758 | 36657 ft | 483 kts | 89° |
| 2026-05-01 14:46 | 56.01429 | 67.25656 | 36662 ft | 483 kts | 89° |
| 2026-05-01 14:47 | 56.02145 | 67.37611 | 36641 ft | 483 kts | 89° |
| 2026-05-01 14:48 | 56.03191 | 67.55523 | 36647 ft | 483 kts | 89° |
| 2026-05-01 14:48 | 56.04218 | 67.73367 | 36654 ft | 483 kts | 89° |
| 2026-05-01 14:49 | 56.05774 | 67.97284 | 36628 ft | 483 kts | 89° |
| 2026-05-01 14:50 | 56.07123 | 68.21176 | 36640 ft | 482 kts | 90° |
| 2026-05-01 14:51 | 56.08097 | 68.39102 | 36639 ft | 482 kts | 90° |
| 2026-05-01 14:52 | 56.09076 | 68.56928 | 36615 ft | 481 kts | 90° |
| 2026-05-01 14:53 | 56.10017 | 68.74776 | 36610 ft | 480 kts | 90° |
| 2026-05-01 14:53 | 56.10583 | 68.85805 | 36597 ft | 478 kts | 90° |
| 2026-05-01 14:54 | 56.11183 | 68.97737 | 36625 ft | 481 kts | 90° |
| 2026-05-01 14:54 | 56.11768 | 69.09761 | 36616 ft | 481 kts | 90° |
| 2026-05-01 14:55 | 56.12953 | 69.34231 | 36635 ft | 480 kts | 90° |
| 2026-05-01 14:56 | 56.13506 | 69.46135 | 36635 ft | 479 kts | 91° |
| 2026-05-01 14:56 | 56.14037 | 69.58039 | 36633 ft | 479 kts | 91° |
| 2026-05-01 14:57 | 56.14114 | 69.69873 | 36595 ft | 470 kts | 101° |
| 2026-05-01 14:57 | 56.13151 | 69.87358 | 36610 ft | 470 kts | 101° |
| 2026-05-01 14:58 | 56.12501 | 69.99025 | 36617 ft | 470 kts | 102° |
| 2026-05-01 14:58 | 56.11831 | 70.10687 | 36628 ft | 470 kts | 102° |
| 2026-05-01 14:59 | 56.11158 | 70.22344 | 36620 ft | 470 kts | 102° |
| 2026-05-01 14:59 | 56.10472 | 70.34001 | 36598 ft | 470 kts | 102° |
| 2026-05-01 15:00 | 56.09418 | 70.51447 | 36586 ft | 469 kts | 102° |
| 2026-05-01 15:01 | 56.08704 | 70.63089 | 36611 ft | 470 kts | 102° |
| 2026-05-01 15:01 | 56.07980 | 70.74718 | 36624 ft | 469 kts | 102° |
| 2026-05-01 15:02 | 56.07247 | 70.86257 | 36637 ft | 469 kts | 102° |
| 2026-05-01 15:02 | 56.06500 | 70.97869 | 36622 ft | 469 kts | 103° |
| 2026-05-01 15:03 | 56.05749 | 71.09457 | 36642 ft | 469 kts | 103° |
| 2026-05-01 15:03 | 56.04981 | 71.21038 | 36656 ft | 469 kts | 103° |
| 2026-05-01 15:04 | 56.04207 | 71.32619 | 36667 ft | 469 kts | 103° |
| 2026-05-01 15:04 | 56.03421 | 71.44203 | 36669 ft | 468 kts | 103° |
| 2026-05-01 15:05 | 56.02623 | 71.55717 | 36643 ft | 468 kts | 103° |
| 2026-05-01 15:05 | 56.01814 | 71.67248 | 36653 ft | 468 kts | 103° |
| 2026-05-01 15:06 | 56.00997 | 71.78801 | 36638 ft | 468 kts | 103° |
| 2026-05-01 15:06 | 56.00169 | 71.90334 | 36655 ft | 468 kts | 103° |
| 2026-05-01 15:07 | 55.99333 | 72.01869 | 36657 ft | 467 kts | 104° |
| 2026-05-01 15:07 | 55.98480 | 72.13374 | 36657 ft | 467 kts | 104° |
| 2026-05-01 15:08 | 55.97767 | 72.22923 | 36659 ft | 467 kts | 104° |
| 2026-05-01 15:08 | 55.96897 | 72.34428 | 36658 ft | 467 kts | 104° |
| 2026-05-01 15:09 | 55.96020 | 72.45911 | 36664 ft | 467 kts | 104° |
| 2026-05-01 15:09 | 55.95127 | 72.57396 | 36667 ft | 467 kts | 104° |
| 2026-05-01 15:10 | 55.94224 | 72.68884 | 36671 ft | 467 kts | 104° |
| 2026-05-01 15:10 | 55.92856 | 72.86090 | 36631 ft | 467 kts | 104° |
| 2026-05-01 15:11 | 55.91478 | 73.03289 | 36625 ft | 467 kts | 104° |
| 2026-05-01 15:12 | 55.90539 | 73.14755 | 36636 ft | 467 kts | 104° |
| 2026-05-01 15:12 | 55.89104 | 73.31870 | 36642 ft | 467 kts | 104° |
| 2026-05-01 15:14 | 55.86608 | 73.60480 | 36640 ft | 467 kts | 105° |
| 2026-05-01 15:14 | 55.85077 | 73.77635 | 36652 ft | 467 kts | 105° |
| 2026-05-01 15:15 | 55.83002 | 74.00444 | 36662 ft | 467 kts | 105° |
| 2026-05-01 15:16 | 55.80884 | 74.23237 | 36639 ft | 467 kts | 105° |
| 2026-05-01 15:18 | 55.78189 | 74.51629 | 36672 ft | 467 kts | 105° |
| 2026-05-01 15:19 | 55.75980 | 74.74342 | 36670 ft | 466 kts | 105° |
| 2026-05-01 15:19 | 55.74301 | 74.91340 | 36688 ft | 466 kts | 105° |
| 2026-05-01 15:20 | 55.72602 | 75.08314 | 36700 ft | 466 kts | 105° |
| 2026-05-01 15:21 | 55.71459 | 75.19625 | 36703 ft | 465 kts | 105° |
| 2026-05-01 15:21 | 55.70303 | 75.30918 | 36683 ft | 465 kts | 105° |
| 2026-05-01 15:22 | 55.68538 | 75.47841 | 36700 ft | 465 kts | 106° |
| 2026-05-01 15:22 | 55.67352 | 75.59128 | 36715 ft | 466 kts | 106° |
| 2026-05-01 15:23 | 55.66175 | 75.70402 | 36713 ft | 466 kts | 106° |
| 2026-05-01 15:23 | 55.64988 | 75.81685 | 36724 ft | 466 kts | 106° |
| 2026-05-01 15:24 | 55.63773 | 75.92937 | 36701 ft | 466 kts | 106° |
| 2026-05-01 15:24 | 55.62541 | 76.04210 | 36716 ft | 467 kts | 106° |
| 2026-05-01 15:25 | 55.61318 | 76.15419 | 36720 ft | 467 kts | 106° |
| 2026-05-01 15:25 | 55.60073 | 76.26696 | 36735 ft | 468 kts | 106° |
| 2026-05-01 15:26 | 55.58814 | 76.37990 | 36736 ft | 468 kts | 106° |
| 2026-05-01 15:26 | 55.57557 | 76.49289 | 36738 ft | 468 kts | 106° |
| 2026-05-01 15:27 | 55.56279 | 76.60547 | 36737 ft | 467 kts | 106° |
| 2026-05-01 15:28 | 55.54351 | 76.77404 | 36762 ft | 467 kts | 106° |
| 2026-05-01 15:28 | 55.53046 | 76.88628 | 36761 ft | 466 kts | 106° |
| 2026-05-01 15:29 | 55.51089 | 77.05442 | 36774 ft | 466 kts | 106° |
| 2026-05-01 15:30 | 55.48426 | 77.27833 | 36772 ft | 466 kts | 106° |
| 2026-05-01 15:31 | 55.44379 | 77.61263 | 36793 ft | 466 kts | 106° |
| 2026-05-01 15:32 | 55.41594 | 77.83727 | 36793 ft | 474 kts | 106° |
| 2026-05-01 15:34 | 55.37301 | 78.17796 | 36815 ft | 475 kts | 107° |